Time;durP1;ratioP1;P1;durP2;ratioP2;P2;SDS_P1;SDS_P2;PMS_P1;PMS_P2;Temp;Humidity;BMP_temperature;BMP_pressure;BME280_temperature;BME280_humidity;BME280_pressure;Samples;Min_cycle;Max_cycle;Signal;HPM_P1;HPM_P2
2022/08/10 00:02:24;;;;;;;2.20;1.00;;;22.50;57.80;;;21.11;45.02;100678.97;10322961;28;96623;-89
2022/08/10 00:07:27;;;;;;;1.75;0.80;;;22.40;58.00;;;21.11;44.93;100678.97;10331024;28;97595;-88
2022/08/10 00:12:29;;;;;;;2.92;0.98;;;22.50;58.10;;;21.16;45.05;100675.56;10343817;28;96776;-88
2022/08/10 00:17:53;;;;;;;1.85;1.10;;;22.50;58.20;;;21.16;44.89;100677.44;10337443;28;98350;-87
2022/08/10 00:22:55;;;;;;;2.28;0.90;;;22.40;58.20;;;21.10;45.29;100669.19;10322928;28;98484;-88
2022/08/10 00:27:59;;;;;;;3.78;1.00;;;22.40;58.40;;;21.06;45.23;100670.69;10294856;28;96568;-87
2022/08/10 00:33:05;;;;;;;3.60;1.10;;;22.40;58.60;;;21.02;45.66;100677.59;10344561;28;96540;-87
2022/08/10 00:38:08;;;;;;;1.45;0.80;;;22.30;58.70;;;20.98;45.68;100681.78;10316803;28;96721;-87
2022/08/10 00:43:11;;;;;;;0.90;0.70;;;22.30;58.90;;;20.94;46.13;100680.59;10329302;28;96552;-87
2022/08/10 00:48:14;;;;;;;1.67;0.75;;;22.30;59.10;;;20.87;46.07;100676.28;10303072;28;96699;-89
2022/08/10 00:53:17;;;;;;;1.42;0.80;;;22.20;59.20;;;20.78;46.06;100675.78;10313065;28;97053;-86
2022/08/10 00:58:20;;;;;;;1.40;1.00;;;22.20;59.50;;;20.72;46.77;100674.78;10326227;28;98329;-88
2022/08/10 01:03:23;;;;;;;2.58;1.10;;;22.10;59.70;;;20.68;46.86;100678.16;10365296;28;96789;-88
2022/08/10 01:09:42;;;;;;;2.95;0.90;;;22.00;59.80;;;20.60;47.14;100676.56;10340670;28;96767;-88
2022/08/10 01:15:26;;;;;;;2.03;0.90;;;22.00;60.20;;;20.57;47.44;100672.47;10335092;28;96705;-87
2022/08/10 01:20:42;;;;;;;3.30;1.00;;;21.90;60.30;;;20.55;47.47;100674.53;10305338;28;96544;-87
2022/08/10 01:26:09;;;;;;;1.73;1.00;;;21.90;60.50;;;20.53;47.71;100673.94;10315429;28;96561;-86
2022/08/10 01:31:41;;;;;;;1.55;0.90;;;21.90;60.60;;;20.54;47.72;100680.97;10305967;28;96718;-86
2022/08/10 01:36:49;;;;;;;3.40;1.00;;;21.90;60.80;;;20.56;47.89;100681.56;10345979;28;96879;-86
2022/08/10 01:42:00;;;;;;;2.08;1.27;;;21.90;60.80;;;20.60;47.60;100676.56;10321322;28;96580;-91
2022/08/10 01:52:34;;;;;;;2.85;1.20;;;21.90;61.10;;;20.52;48.20;100684.97;10337369;28;97253;-88
2022/08/10 01:57:39;;;;;;;1.80;0.80;;;21.80;61.10;;;20.48;48.13;100673.78;10339391;28;97543;-88
2022/08/10 02:02:45;;;;;;;3.42;1.00;;;21.80;61.30;;;20.47;48.18;100672.13;10337888;28;98101;-87
2022/08/10 02:07:50;;;;;;;3.92;1.20;;;21.80;61.40;;;20.44;48.66;100672.53;10336146;28;98306;-88
2022/08/10 02:12:55;;;;;;;1.73;1.00;;;21.70;61.50;;;20.45;48.67;100673.34;10325369;28;97328;-87
2022/08/10 02:18:01;;;;;;;2.35;1.30;;;21.70;61.60;;;20.43;48.79;100675.44;10297613;28;96625;-87
2022/08/10 02:23:10;;;;;;;1.83;1.10;;;21.70;61.70;;;20.40;48.71;100676.72;10307857;28;96671;-88
2022/08/10 02:28:19;;;;;;;2.22;1.10;;;21.70;62.40;;;20.35;48.88;100679.25;10312275;28;96710;-87
2022/08/10 02:33:35;;;;;;;4.30;1.08;;;21.70;62.00;;;20.28;49.16;100686.59;10310052;28;96901;-88
2022/08/10 02:38:51;;;;;;;3.10;1.13;;;21.60;62.10;;;20.25;49.43;100695.09;10332845;28;96619;-88
2022/08/10 02:44:12;;;;;;;4.88;1.25;;;21.50;62.30;;;20.21;49.38;100693.88;10308398;28;96686;-88
2022/08/10 02:49:41;;;;;;;2.65;1.10;;;21.50;62.50;;;20.15;49.53;100694.75;10333426;28;97621;-87
2022/08/10 02:55:06;;;;;;;4.03;1.20;;;21.50;62.70;;;20.06;49.58;100702.31;10329106;28;98056;-88
2022/08/10 03:00:22;;;;;;;3.28;1.23;;;21.40;62.80;;;19.94;50.29;100698.66;10326263;28;97335;-88
2022/08/10 03:05:26;;;;;;;2.20;1.38;;;21.30;63.20;;;19.86;50.19;100701.63;10322427;28;97996;-88
2022/08/10 03:10:40;;;;;;;3.13;1.27;;;21.20;63.40;;;19.77;50.90;100701.03;10337105;28;96605;-88
2022/08/10 03:15:45;;;;;;;18.50;12.38;;;21.10;63.70;;;19.73;50.83;100710.56;10315516;28;96652;-88
2022/08/10 03:20:50;;;;;;;6.18;2.80;;;21.00;63.80;;;19.68;50.64;100723.91;10300637;28;96763;-88
2022/08/10 03:25:56;;;;;;;2.28;1.85;;;21.00;64.00;;;19.66;50.70;100723.28;10349267;28;96559;-88
2022/08/10 03:31:00;;;;;;;2.72;1.60;;;21.00;64.10;;;19.64;50.70;100725.38;10315971;28;97082;-88
2022/08/10 03:36:05;;;;;;;4.68;1.50;;;20.90;64.00;;;19.60;50.92;100735.72;10330575;28;97140;-88
2022/08/10 03:41:47;;;;;;;1.98;1.20;;;20.90;64.10;;;19.57;51.12;100736.16;10328883;28;96703;-88
2022/08/10 03:46:59;;;;;;;3.42;1.08;;;20.90;64.20;;;19.53;51.47;100733.03;10312105;28;97326;-86
2022/08/10 03:52:05;;;;;;;4.25;1.35;;;20.90;64.40;;;19.48;51.48;100734.72;10325222;28;98398;-85
2022/08/10 03:57:09;;;;;;;1.98;1.25;;;20.90;65.00;;;19.46;51.62;100742.19;10317665;28;96738;-86
2022/08/10 04:02:13;;;;;;;3.60;1.20;;;20.80;64.70;;;19.44;51.63;100737.03;10319961;28;97685;-86
2022/08/10 04:07:36;;;;;;;2.85;1.35;;;20.80;64.70;;;19.48;51.66;100745.50;10300396;28;96818;-85
2022/08/10 04:12:39;;;;;;;3.45;1.10;;;20.80;64.70;;;19.50;51.67;100752.34;10305193;28;98474;-87
2022/08/10 04:17:42;;;;;;;3.70;1.65;;;20.90;65.00;;;19.53;51.92;100754.59;10351125;28;96582;-85
2022/08/10 04:23:14;;;;;;;3.65;1.60;;;20.90;65.20;;;19.56;52.10;100755.25;10322567;28;96632;-84
2022/08/10 04:28:18;;;;;;;4.95;1.63;;;20.90;65.50;;;19.61;52.22;100758.13;10332803;28;96654;-84
2022/08/10 04:33:23;;;;;;;3.60;1.60;;;20.90;65.60;;;19.67;52.43;100757.28;10315375;28;98913;-84
2022/08/10 04:38:29;;;;;;;3.50;1.17;;;20.90;65.60;;;19.75;52.44;100757.06;10300381;28;96642;-85
2022/08/10 04:43:33;;;;;;;2.00;1.05;;;21.00;65.80;;;19.82;52.17;100752.44;10319985;28;96825;-85
2022/08/10 04:48:36;;;;;;;2.92;1.20;;;21.10;65.80;;;19.92;52.29;100758.22;10314784;28;96776;-85
2022/08/10 04:53:54;;;;;;;4.70;1.70;;;21.10;65.80;;;20.00;52.30;100741.75;10325681;28;96909;-86
2022/08/10 04:59:10;;;;;;;3.08;1.55;;;21.20;65.60;;;20.13;51.66;100753.53;10332579;28;96555;-85
2022/08/10 05:04:12;;;;;;;2.33;1.10;;;21.30;65.30;;;20.29;51.34;100750.31;10319817;28;98120;-84
2022/08/10 05:09:38;;;;;;;2.95;1.42;;;21.50;65.00;;;20.54;49.21;100753.88;10333000;28;96606;-85
2022/08/10 05:15:00;;;;;;;2.35;1.05;;;21.70;63.60;;;20.78;49.03;100746.00;10338000;28;97491;-85
2022/08/10 05:20:06;;;;;;;1.92;0.93;;;21.90;63.10;;;20.95;49.25;100749.78;10307974;28;96813;-85
2022/08/10 05:25:16;;;;;;;5.43;1.30;;;22.10;62.80;;;21.10;47.51;100744.84;10317259;28;98627;-85
2022/08/10 05:30:21;;;;;;;3.17;1.25;;;22.30;61.50;;;21.31;45.99;100740.91;10318140;28;96666;-93
2022/08/10 05:35:25;;;;;;;2.17;1.20;;;22.40;60.10;;;21.50;45.50;100741.72;10301816;28;96603;-93
2022/08/10 05:40:29;;;;;;;1.80;0.95;;;22.60;59.60;;;21.67;44.61;100741.13;10343188;28;96739;-95
2022/08/10 05:45:32;;;;;;;2.80;0.90;;;22.80;58.80;;;21.72;44.72;100719.63;10334621;28;96561;-96
2022/08/10 05:50:55;;;;;;;3.22;1.10;;;22.90;58.70;;;21.82;44.37;100718.00;10346433;28;96662;-96
2022/08/10 05:56:00;;;;;;;3.33;1.10;;;23.00;58.30;;;21.97;44.19;100725.72;10342398;28;96634;-94
2022/08/10 06:01:11;;;;;;;3.30;1.05;;;23.10;58.20;;;22.03;43.43;100723.97;10335292;28;96671;-94
2022/08/10 06:06:18;;;;;;;3.03;1.15;;;23.20;57.40;;;22.10;43.67;100716.63;10329694;28;97230;-92
2022/08/10 06:11:29;;;;;;;5.30;1.00;;;23.30;57.60;;;22.19;43.79;100726.06;10380340;28;96901;-91
2022/08/10 06:16:53;;;;;;;5.55;1.58;;;23.40;57.70;;;22.28;43.42;100732.78;10342781;28;96665;-94
2022/08/10 06:22:00;;;;;;;3.67;1.25;;;23.50;57.40;;;22.27;43.27;100727.59;10322816;28;98394;-90
2022/08/10 06:27:03;;;;;;;5.10;1.20;;;23.50;57.20;;;22.33;42.82;100726.69;10309525;28;98404;-88
2022/08/10 06:32:09;;;;;;;6.35;1.50;;;23.50;57.10;;;22.41;43.37;100729.03;10334580;28;96641;-89
2022/08/10 06:37:17;;;;;;;2.60;1.17;;;23.60;57.20;;;22.54;43.58;100736.94;10325535;28;96533;-90
2022/08/10 06:42:34;;;;;;;4.25;1.17;;;23.70;57.40;;;22.60;42.95;100733.28;10324160;28;96589;-90
2022/08/10 06:48:07;;;;;;;3.08;1.20;;;23.80;57.00;;;22.73;42.56;100734.97;10308042;28;96825;-88
2022/08/10 06:53:22;;;;;;;3.75;1.17;;;23.90;56.60;;;22.84;42.07;100727.88;10323348;28;96505;-90
2022/08/10 06:58:59;;;;;;;1.70;1.15;;;24.00;56.30;;;22.87;42.51;100738.31;10323568;28;96644;-90
2022/08/10 07:04:21;;;;;;;3.97;1.33;;;24.10;56.50;;;22.99;42.51;100733.69;10332555;28;96652;-89
2022/08/10 07:09:38;;;;;;;4.07;1.00;;;24.20;56.70;;;23.17;41.70;100735.44;10311492;28;96718;-88
2022/08/10 07:14:46;;;;;;;2.65;1.30;;;24.30;56.10;;;23.22;41.55;100725.53;10318488;28;96599;-90
2022/08/10 07:19:54;;;;;;;1.80;1.00;;;24.40;55.70;;;23.37;41.71;100724.22;10324957;28;96726;-91
2022/08/10 07:24:59;;;;;;;2.03;1.13;;;24.50;55.80;;;23.45;41.16;100721.97;10323727;28;98549;-91
2022/08/10 07:30:09;;;;;;;2.42;1.20;;;24.70;55.40;;;23.55;40.52;100715.06;10303712;28;97233;-91
2022/08/10 07:35:16;;;;;;;3.80;1.20;;;24.70;54.80;;;23.66;41.21;100716.97;10320142;28;96484;-91
2022/08/10 07:40:21;;;;;;;2.67;0.90;;;24.80;55.30;;;23.82;40.19;100710.78;10333642;28;96683;-89
2022/08/10 07:45:29;;;;;;;4.30;1.10;;;24.90;54.70;;;23.92;38.56;100710.13;10310100;28;96495;-88
2022/08/10 07:50:36;;;;;;;4.18;0.90;;;25.10;53.30;;;24.08;38.43;100719.38;10334106;28;96541;-89
2022/08/10 07:55:42;;;;;;;2.40;0.93;;;25.20;53.10;;;24.05;37.84;100712.56;10336642;28;97271;-90
2022/08/10 08:01:05;;;;;;;2.58;1.20;;;25.20;52.10;;;24.13;37.63;100720.28;10327017;28;96702;-88
2022/08/10 08:06:08;;;;;;;1.50;1.05;;;25.30;52.00;;;24.32;38.10;100711.91;10321016;28;96575;-92
2022/08/10 08:11:14;;;;;;;3.33;0.80;;;25.40;52.40;;;24.42;36.96;100721.09;10341397;28;96571;-90
2022/08/10 08:16:30;;;;;;;2.20;1.00;;;25.60;51.50;;;24.47;37.06;100723.03;10320463;28;97733;-90
2022/08/10 08:21:34;;;;;;;4.80;1.20;;;25.70;51.60;;;24.60;37.16;100720.00;10337983;28;96583;-91
2022/08/10 08:26:59;;;;;;;2.03;1.00;;;25.80;51.70;;;24.78;37.31;100708.06;10321416;28;98447;-94
2022/08/10 08:32:04;;;;;;;1.90;0.80;;;25.90;51.60;;;24.96;35.30;100723.25;10358590;28;96846;-89
2022/08/10 08:37:09;;;;;;;2.42;0.90;;;26.20;50.50;;;24.99;35.90;100709.16;10318182;28;96363;-96
2022/08/10 08:42:56;;;;;;;2.08;0.90;;;26.20;50.50;;;25.08;35.93;100696.81;10367626;28;96779;-96
2022/08/10 08:48:23;;;;;;;2.22;0.90;;;26.30;50.30;;;25.25;35.03;100694.03;10346931;28;96536;-95
2022/08/10 08:53:47;;;;;;;1.85;0.73;;;26.40;49.90;;;25.47;34.89;100686.69;10330344;28;97099;-93
2022/08/10 08:59:27;;;;;;;2.22;0.90;;;26.60;49.30;;;25.58;33.81;100680.28;10348335;28;97449;-93
2022/08/10 09:05:22;;;;;;;2.97;0.77;;;26.80;48.90;;;25.70;34.26;100685.56;10352872;28;96644;-89
2022/08/10 09:10:55;;;;;;;4.60;0.82;;;26.80;49.10;;;25.82;34.46;100686.28;10330286;28;96565;-92
2022/08/10 09:16:12;;;;;;;;;;;27.00;49.10;;;26.07;34.32;100671.25;10326562;28;96807;-93
2022/08/10 09:22:04;;;;;;;2.67;0.88;;;27.20;49.20;;;26.05;32.59;100676.97;10366172;28;97871;-93
2022/08/10 09:27:34;;;;;;;3.35;0.88;;;27.30;48.50;;;26.06;32.71;100675.06;10369389;28;96478;-91
2022/08/10 09:32:49;;;;;;;4.32;0.90;;;27.30;47.70;;;26.16;32.93;100661.53;10326497;28;97551;-94
2022/08/10 09:38:59;;;;;;;4.55;1.10;;;27.40;47.90;;;26.29;33.00;100669.28;10328861;28;96603;-95
2022/08/10 09:44:20;;;;;;;2.83;1.00;;;27.50;47.90;;;26.45;32.89;100669.41;10310365;28;98638;-93
2022/08/10 09:50:00;;;;;;;3.20;1.00;;;27.60;47.90;;;26.64;32.69;100665.19;10322032;28;96973;-94
2022/08/10 09:55:15;;;;;;;1.25;0.80;;;27.80;47.70;;;26.81;32.63;100662.28;10333411;28;98280;-93
2022/08/10 10:00:22;;;;;;;1.90;0.80;;;28.00;47.60;;;27.00;32.87;100649.03;10325067;28;96571;-92
2022/08/10 10:05:49;;;;;;;1.58;0.88;;;28.20;48.10;;;26.99;30.93;100641.91;10321377;28;96657;-96
2022/08/10 10:11:25;;;;;;;1.52;0.98;;;28.30;45.90;;;26.92;31.58;100650.34;10357222;28;96609;-93
2022/08/10 10:17:04;;;;;;;1.30;0.90;;;28.30;46.30;;;27.17;31.33;100642.31;10310894;28;96748;-91
2022/08/10 10:22:25;;;;;;;2.20;1.02;;;28.40;46.50;;;27.25;31.27;100631.97;10339929;28;96770;-95
2022/08/10 10:27:46;;;;;;;1.73;0.90;;;28.50;46.20;;;27.56;30.97;100624.69;10301867;28;96659;-91
2022/08/10 10:33:01;;;;;;;1.60;0.88;;;28.80;46.40;;;27.52;30.03;100627.13;10338165;28;96693;-91
2022/08/10 10:38:09;;;;;;;3.22;1.10;;;28.80;45.20;;;27.61;29.94;100630.16;10321628;28;99800;-93
2022/08/10 10:44:01;;;;;;;2.50;0.90;;;28.90;45.30;;;27.80;30.78;100595.78;10317062;28;96598;-91
2022/08/10 10:49:24;;;;;;;1.77;0.90;;;29.10;45.40;;;27.89;30.26;100604.25;10277545;28;96953;-91
2022/08/10 10:54:58;;;;;;;5.47;1.20;;;29.20;45.10;;;28.08;30.07;100596.34;10315771;28;96528;-90
2022/08/10 11:00:09;;;;;;;3.83;0.90;;;29.30;45.20;;;28.28;28.43;100599.84;10312376;28;98055;-88
2022/08/10 11:05:34;;;;;;;0.82;0.52;;;29.60;44.60;;;28.38;28.79;100587.31;10378975;28;96825;-90
2022/08/10 11:11:05;;;;;;;2.17;0.82;;;29.70;43.90;;;28.52;27.49;100591.91;10303319;28;96651;-90
2022/08/10 11:16:47;;;;;;;2.05;0.55;;;29.90;42.90;;;28.46;27.18;100575.81;10325344;28;96446;-90
2022/08/10 11:22:02;;;;;;;2.35;0.73;;;29.80;42.20;;;28.69;26.52;100575.19;10324311;28;96555;-88
2022/08/10 11:27:48;;;;;;;1.77;0.70;;;30.00;41.50;;;28.65;26.53;100573.28;10344281;28;96499;-91
2022/08/10 11:33:16;;;;;;;1.58;0.70;;;30.00;41.60;;;28.67;24.61;100566.47;10347334;28;97318;-85
2022/08/10 11:39:35;;;;;;;1.42;0.60;;;30.00;40.30;;;28.69;25.19;100572.44;10344908;28;96514;-94
2022/08/10 11:45:07;;;;;;;2.38;0.65;;;30.00;40.00;;;29.04;25.23;100566.03;10335325;28;96556;-91
2022/08/10 11:50:42;;;;;;;2.03;0.60;;;30.30;40.40;;;29.18;24.15;100570.88;10301655;28;97195;-90
2022/08/10 11:55:53;;;;;;;1.42;0.60;;;30.60;39.20;;;29.47;24.19;100574.53;10320914;28;98744;-92
2022/08/10 12:01:01;;;;;;;2.55;0.55;;;30.70;39.50;;;29.54;23.03;100555.88;10327546;28;96816;-92
2022/08/10 12:06:12;;;;;;;1.08;0.60;;;30.90;38.00;;;29.46;23.33;100563.88;10332747;28;96702;-92
2022/08/10 12:11:28;;;;;;;0.90;0.40;;;30.90;38.40;;;29.55;22.96;100548.50;10293894;28;97516;-93
2022/08/10 12:16:37;;;;;;;1.33;0.60;;;31.10;37.90;;;29.82;23.22;100558.97;10340418;28;97444;-94
2022/08/10 12:22:04;;;;;;;1.25;0.50;;;31.50;38.00;;;29.88;21.78;100546.84;10342466;28;97269;-87
2022/08/10 12:27:46;;;;;;;2.28;0.70;;;31.80;36.40;;;29.93;21.28;100548.69;10325885;28;96581;-88
2022/08/10 12:33:02;;;;;;;3.72;0.82;;;31.90;35.50;;;30.22;21.57;100552.28;10301183;28;96728;-93
2022/08/10 12:38:30;;;;;;;2.42;0.50;;;32.30;35.90;;;30.76;21.38;100548.41;10292050;28;96530;-93
2022/08/10 12:43:50;;;;;;;1.33;0.80;;;33.00;35.90;;;31.26;21.01;100539.81;10322725;28;96690;-86
2022/08/10 12:49:21;;;;;;;1.90;0.60;;;33.70;35.50;;;31.56;21.06;100531.09;10309807;28;96657;-90
2022/08/10 12:54:27;;;;;;;1.33;0.45;;;34.00;35.60;;;31.75;19.37;100530.22;10301127;28;96539;-89
2022/08/10 12:59:48;;;;;;;1.30;0.63;;;34.10;34.70;;;31.99;19.76;100522.66;10318986;28;96532;-91
2022/08/10 13:04:55;;;;;;;4.03;0.60;;;34.20;34.60;;;32.31;19.21;100512.72;10301667;28;96772;-92
2022/08/10 13:10:09;;;;;;;9.95;0.75;;;34.40;34.30;;;32.07;19.16;100505.47;10311681;28;96622;-91
2022/08/10 13:15:24;;;;;;;1.95;0.50;;;34.10;33.90;;;32.06;19.89;100500.28;10328819;28;98051;-89
2022/08/10 13:20:59;;;;;;;1.27;0.60;;;33.90;34.70;;;32.10;20.30;100495.81;10340407;28;96478;-91
2022/08/10 13:26:02;;;;;;;1.17;0.65;;;33.60;35.20;;;31.72;19.51;100504.16;10320931;28;96879;-91
2022/08/10 13:31:12;;;;;;;1.92;0.40;;;33.20;34.60;;;31.51;19.91;100506.44;10323185;28;96723;-90
2022/08/10 13:36:29;;;;;;;1.45;0.70;;;32.90;35.00;;;30.53;20.74;100511.66;10324513;28;96432;-90
2022/08/10 13:41:39;;;;;;;6.60;0.80;;;32.20;35.20;;;29.81;21.99;100505.28;10314387;28;96564;-90
2022/08/10 13:46:51;;;;;;;0.98;0.60;;;31.40;36.00;;;29.72;22.84;100493.31;10296050;28;96543;-91
2022/08/10 13:51:55;;;;;;;1.27;0.65;;;31.00;37.30;;;29.83;22.31;100500.31;10340199;28;96458;-89
2022/08/10 13:57:00;;;;;;;1.30;0.68;;;31.10;37.20;;;29.75;22.41;100493.56;10338307;28;96491;-89
2022/08/10 14:02:05;;;;;;;1.02;0.60;;;31.10;37.20;;;29.76;23.42;100489.72;10333792;28;96513;-90
2022/08/10 14:07:10;;;;;;;1.27;0.70;;;31.00;37.90;;;30.08;23.00;100480.88;10313057;28;96730;-94
2022/08/10 14:12:14;;;;;;;2.45;0.68;;;31.40;37.60;;;30.29;22.71;100480.69;10322206;28;96477;-89
2022/08/10 14:17:21;;;;;;;1.65;0.70;;;31.60;37.20;;;30.13;22.29;100476.50;10324223;28;96737;-92
2022/08/10 14:22:25;;;;;;;2.57;0.70;;;31.50;36.60;;;29.86;22.07;100475.09;10320173;28;96715;-91
2022/08/10 14:27:41;;;;;;;1.10;0.63;;;31.30;36.40;;;30.00;21.97;100472.50;10348026;28;98142;-91
2022/08/10 14:33:06;;;;;;;2.35;0.70;;;31.30;36.70;;;29.97;22.08;100473.88;10322791;28;98361;-93
2022/08/10 14:38:18;;;;;;;2.13;0.90;;;31.40;36.60;;;29.79;22.07;100467.22;10327623;28;97036;-91
2022/08/10 14:43:34;;;;;;;3.13;0.95;;;31.20;36.20;;;30.04;22.54;100463.38;10330816;28;96860;-90
2022/08/10 14:48:45;;;;;;;1.67;0.70;;;31.20;36.80;;;30.07;21.77;100462.81;10333594;28;96710;-91
2022/08/10 14:53:53;;;;;;;1.17;0.50;;;31.50;36.20;;;29.99;21.49;100465.34;10347418;28;96564;-95
2022/08/10 14:59:01;;;;;;;1.58;0.60;;;31.40;35.80;;;29.93;21.91;100448.19;10332719;28;96736;-91
2022/08/10 15:04:12;;;;;;;2.38;0.63;;;31.30;35.90;;;29.90;21.57;100446.00;10328607;28;96720;-89
2022/08/10 15:09:19;;;;;;;1.10;0.70;;;31.30;35.90;;;29.89;21.06;100449.84;10297419;28;96623;-90
2022/08/10 15:14:24;;;;;;;0.73;0.52;;;31.30;35.80;;;29.96;22.09;100447.59;10312226;28;97304;-92
2022/08/10 15:19:50;;;;;;;1.20;0.60;;;31.30;36.20;;;30.01;21.67;100450.28;10323514;28;98263;-85
2022/08/10 15:25:10;;;;;;;1.10;0.70;;;31.40;35.90;;;30.30;21.90;100450.25;10329523;28;97366;-84
2022/08/10 15:30:31;;;;;;;1.45;0.70;;;31.60;36.30;;;30.29;21.50;100442.31;10345075;28;97410;-87
2022/08/10 15:41:00;;;;;;;1.75;0.80;;;31.60;35.80;;;30.25;21.00;100446.75;10324878;28;96737;-88
2022/08/10 15:46:32;;;;;;;1.05;0.50;;;31.60;35.50;;;30.25;20.77;100442.06;10297241;28;96566;-88
2022/08/10 15:51:54;;;;;;;0.88;0.57;;;31.60;35.20;;;29.91;20.74;100442.16;10315881;28;96984;-86
2022/08/10 15:57:10;;;;;;;2.72;1.65;;;31.40;35.10;;;29.98;21.59;100441.81;10322660;28;98080;-84
2022/08/10 16:02:22;;;;;;;1.08;0.70;;;31.30;35.60;;;30.05;21.13;100440.38;10316724;28;98246;-85
2022/08/10 16:07:48;;;;;;;1.83;0.85;;;31.40;35.50;;;30.18;21.29;100433.41;10336044;28;96761;-87
2022/08/10 16:12:58;;;;;;;5.28;0.70;;;31.50;35.60;;;30.13;21.64;100438.13;10338553;28;96733;-84
2022/08/10 16:18:13;;;;;;;1.17;0.60;;;31.50;36.00;;;30.21;22.24;100434.72;10311267;28;96751;-83
2022/08/10 16:23:29;;;;;;;1.95;0.68;;;31.60;36.50;;;30.16;22.02;100441.06;10334834;28;96928;-85
2022/08/10 16:28:44;;;;;;;3.00;0.80;;;31.60;36.30;;;30.00;21.89;100443.16;10327355;28;98406;-86
2022/08/10 16:33:55;;;;;;;1.85;0.80;;;31.40;36.10;;;29.65;22.12;100441.63;10341491;28;96583;-86
2022/08/10 16:38:59;;;;;;;1.77;1.02;;;31.10;36.20;;;29.58;22.47;100441.97;10337408;28;96719;-85
2022/08/10 16:44:04;;;;;;;1.48;0.75;;;30.90;36.60;;;29.51;21.92;100437.91;10323551;28;97781;-86
2022/08/10 16:49:08;;;;;;;2.00;0.80;;;31.00;36.30;;;29.28;22.81;100426.59;10333526;28;97207;-85
2022/08/10 16:54:21;;;;;;;2.42;0.60;;;30.80;36.60;;;29.03;23.35;100437.75;10330300;28;98590;-84
2022/08/10 16:59:35;;;;;;;1.80;0.70;;;30.50;36.90;;;28.92;24.01;100442.47;10329984;28;96859;-84
2022/08/10 17:04:41;;;;;;;4.10;0.70;;;30.40;37.50;;;28.65;24.28;100447.50;10343264;28;96720;-85
2022/08/10 17:09:50;;;;;;;16.45;1.30;;;30.10;37.90;;;28.38;24.73;100451.47;10315174;28;96615;-83
2022/08/10 17:14:54;;;;;;;30.50;2.03;;;29.80;38.50;;;28.11;24.36;100451.00;10322582;28;97311;-84
2022/08/10 17:20:42;;;;;;;9.23;1.23;;;29.50;38.40;;;27.87;25.24;100462.53;10329093;28;97824;-84
2022/08/10 17:25:47;;;;;;;2.20;0.90;;;29.30;38.80;;;27.75;25.79;100459.28;10337826;28;96447;-83
2022/08/10 17:31:01;;;;;;;7.70;1.38;;;29.10;39.40;;;27.56;25.88;100471.81;10334664;28;96696;-84
2022/08/10 17:36:05;;;;;;;2.35;0.90;;;28.90;39.40;;;27.28;26.11;100474.00;10355221;28;96719;-84
2022/08/10 17:41:11;;;;;;;3.53;0.70;;;28.70;39.50;;;27.11;26.59;100481.59;10289425;28;97479;-84
2022/08/10 17:46:15;;;;;;;2.25;1.20;;;28.50;40.40;;;26.97;27.60;100485.94;10287161;28;96609;-84
2022/08/10 17:51:20;;;;;;;4.22;0.85;;;28.30;40.70;;;26.80;27.87;100480.69;10328891;28;98049;-84
2022/08/10 17:56:24;;;;;;;3.92;1.10;;;28.10;41.10;;;26.63;28.03;100483.66;10320660;28;97104;-83
2022/08/10 18:01:33;;;;;;;2.65;1.00;;;27.90;41.60;;;26.41;28.42;100481.94;10346558;28;96604;-84
2022/08/10 18:07:00;;;;;;;4.25;1.10;;;27.60;42.10;;;26.13;29.39;100487.75;10341937;28;97017;-83
2022/08/10 18:12:17;;;;;;;3.28;1.38;;;27.30;42.60;;;25.82;30.30;100489.47;10316514;28;98128;-85
2022/08/10 18:17:25;;;;;;;2.67;1.10;;;27.10;43.20;;;25.56;30.74;100486.53;10338502;28;97968;-86
2022/08/10 18:22:29;;;;;;;2.10;1.05;;;26.80;43.60;;;25.32;30.84;100502.38;10317492;28;96792;-86
2022/08/10 18:27:38;;;;;;;5.93;1.60;;;26.50;44.00;;;25.05;31.67;100506.97;10313536;28;96728;-85
2022/08/10 18:33:03;;;;;;;2.92;1.50;;;26.20;44.50;;;24.77;32.71;100514.28;10330807;28;98243;-87
2022/08/10 18:38:07;;;;;;;5.05;1.55;;;26.00;45.50;;;24.56;33.39;100517.81;10321366;28;96605;-87
2022/08/10 18:43:16;;;;;;;4.10;1.40;;;25.70;46.00;;;24.40;33.04;100522.22;10322880;28;97023;-85
2022/08/10 18:48:54;;;;;;;5.88;1.40;;;25.60;46.20;;;24.25;33.46;100530.13;10338325;28;96565;-85
2022/08/10 18:54:06;;;;;;;4.00;1.50;;;25.40;46.20;;;24.12;33.89;100544.88;10337890;28;98109;-84
2022/08/10 19:00:04;;;;;;;2.53;1.10;;;25.30;46.60;;;23.98;33.74;100549.00;10315172;28;96642;-84
2022/08/10 19:05:29;;;;;;;2.58;1.13;;;25.10;46.10;;;23.88;33.66;100552.38;10331819;28;96956;-86
2022/08/10 19:10:46;;;;;;;6.00;1.40;;;25.10;46.20;;;23.76;33.76;100547.03;10329217;28;96630;-86
2022/08/10 19:16:31;;;;;;;2.47;1.40;;;25.00;46.40;;;23.66;34.21;100555.00;10335443;28;96794;-85
2022/08/10 19:21:47;;;;;;;1.27;1.00;;;24.80;46.80;;;23.58;34.33;100552.66;10332116;28;97507;-85
2022/08/10 19:27:32;;;;;;;2.92;1.20;;;24.70;46.90;;;23.52;34.65;100559.06;10318101;28;96799;-86
2022/08/10 19:32:40;;;;;;;2.38;1.25;;;24.60;47.20;;;23.43;34.75;100558.63;10334835;28;98213;-86
2022/08/10 19:38:01;;;;;;;3.97;0.98;;;24.60;47.20;;;23.35;35.37;100560.94;10320806;28;96609;-86
2022/08/10 19:43:18;;;;;;;3.97;1.25;;;24.50;47.70;;;23.26;35.83;100560.47;10336482;28;96713;-87
2022/08/10 19:48:57;;;;;;;3.22;1.38;;;24.30;48.20;;;23.17;35.81;100573.63;10336609;28;97277;-86
2022/08/10 19:54:53;;;;;;;3.45;1.27;;;24.30;48.30;;;23.11;36.28;100577.28;10313160;28;96692;-87
2022/08/10 20:00:07;;;;;;;2.03;1.13;;;24.20;48.60;;;23.03;36.43;100574.97;10302270;28;97171;-87
2022/08/10 20:06:11;;;;;;;3.38;1.35;;;24.20;48.80;;;22.91;36.80;100576.88;10323080;28;96674;-86
2022/08/10 20:11:31;;;;;;;2.88;1.23;;;24.10;49.30;;;22.83;36.93;100582.63;10300164;28;97226;-87
2022/08/10 20:16:54;;;;;;;2.80;1.38;;;24.00;49.30;;;22.69;37.20;100582.09;10317659;28;97694;-86
2022/08/10 20:22:07;;;;;;;2.20;1.20;;;23.80;49.50;;;22.59;37.39;100587.28;10310221;28;96732;-86
2022/08/10 20:27:48;;;;;;;2.25;1.10;;;23.70;49.70;;;22.48;37.75;100591.63;10330308;28;96637;-87
2022/08/10 20:33:33;;;;;;;2.10;1.10;;;23.60;50.10;;;22.36;37.83;100593.53;10329499;28;96684;-86
2022/08/10 20:39:29;;;;;;;1.50;1.10;;;23.50;50.30;;;22.26;38.53;100607.66;10302466;28;97015;-88
2022/08/10 20:45:01;;;;;;;4.05;1.08;;;23.40;50.90;;;22.13;38.61;100608.72;10318556;28;96772;-89
2022/08/10 20:50:39;;;;;;;1.83;1.27;;;23.30;50.80;;;22.04;38.44;100607.38;10344734;28;96576;-93
2022/08/10 20:56:09;;;;;;;3.35;1.30;;;23.20;50.90;;;22.00;38.95;100616.19;10319180;28;96564;-92
2022/08/10 21:01:26;;;;;;;2.28;0.95;;;23.10;51.30;;;21.98;39.08;100619.13;10322866;28;96668;-92
2022/08/10 21:07:12;;;;;;;3.10;1.10;;;23.20;51.20;;;21.99;38.92;100620.78;10338111;28;96718;-92
2022/08/10 21:13:12;;;;;;;4.72;1.40;;;23.10;51.10;;;21.91;39.29;100626.53;10304454;28;96970;-87
2022/08/10 21:18:58;;;;;;;2.60;1.00;;;23.10;51.20;;;21.83;39.28;100627.69;10323655;28;96667;-96
2022/08/10 21:24:08;;;;;;;1.92;1.00;;;23.00;51.50;;;21.75;39.65;100624.47;10327424;28;96641;-92
2022/08/10 23:01:38;;;;;;;;;;;21.50;56.20;;;20.25;44.91;100635.75;10307359;28;96884;-92
2022/08/10 23:07:05;;;;;;;2.08;1.08;;;21.40;57.10;;;20.20;44.87;100632.88;10321133;28;96532;-92
2022/08/10 23:12:19;;;;;;;1.42;1.00;;;21.40;56.50;;;20.16;45.02;100637.06;10323140;28;96703;-94
2022/08/10 23:23:05;;;;;;;1.73;1.15;;;21.30;56.80;;;20.17;44.97;100633.31;10340500;28;96534;-95
2022/08/10 23:28:14;;;;;;;3.13;0.93;;;21.30;56.90;;;20.19;45.59;100629.34;10312157;28;98431;-96
2022/08/10 23:33:27;;;;;;;1.83;1.20;;;21.40;57.00;;;20.19;45.53;100620.44;10334116;28;96685;-95